sensor_id;sensor_type;location;lat;lon;timestamp;temperature;humidity
25871;DHT22;13689;48.590;7.752;2023-05-13T00:01:38;14.10;83.40
25871;DHT22;13689;48.590;7.752;2023-05-13T00:04:05;14.10;83.60
25871;DHT22;13689;48.590;7.752;2023-05-13T00:06:31;14.10;83.90
25871;DHT22;13689;48.590;7.752;2023-05-13T00:08:57;14.10;83.80
25871;DHT22;13689;48.590;7.752;2023-05-13T00:11:23;14.10;83.80
25871;DHT22;13689;48.590;7.752;2023-05-13T00:13:48;14.10;83.80
25871;DHT22;13689;48.590;7.752;2023-05-13T00:16:14;14.10;83.90
25871;DHT22;13689;48.590;7.752;2023-05-13T00:18:39;14.10;84.00
25871;DHT22;13689;48.590;7.752;2023-05-13T00:21:05;14.10;84.00
25871;DHT22;13689;48.590;7.752;2023-05-13T00:23:30;14.10;84.00
25871;DHT22;13689;48.590;7.752;2023-05-13T00:25:57;14.10;84.00
25871;DHT22;13689;48.590;7.752;2023-05-13T00:28:22;14.10;83.90
25871;DHT22;13689;48.590;7.752;2023-05-13T00:30:48;14.10;83.90
25871;DHT22;13689;48.590;7.752;2023-05-13T00:33:14;14.10;84.80
25871;DHT22;13689;48.590;7.752;2023-05-13T00:35:39;14.10;83.90
25871;DHT22;13689;48.590;7.752;2023-05-13T00:38:05;14.20;83.80
25871;DHT22;13689;48.590;7.752;2023-05-13T00:40:31;14.10;83.70
25871;DHT22;13689;48.590;7.752;2023-05-13T00:42:57;14.10;83.80
25871;DHT22;13689;48.590;7.752;2023-05-13T00:45:23;14.10;83.90
25871;DHT22;13689;48.590;7.752;2023-05-13T00:47:48;14.10;83.90
25871;DHT22;13689;48.590;7.752;2023-05-13T00:50:14;14.10;84.00
25871;DHT22;13689;48.590;7.752;2023-05-13T00:52:40;14.10;84.10
25871;DHT22;13689;48.590;7.752;2023-05-13T00:55:07;14.10;84.90
25871;DHT22;13689;48.590;7.752;2023-05-13T00:57:33;14.10;84.10
25871;DHT22;13689;48.590;7.752;2023-05-13T00:59:59;14.10;84.20
25871;DHT22;13689;48.590;7.752;2023-05-13T01:02:34;14.10;84.10
25871;DHT22;13689;48.590;7.752;2023-05-13T01:05:25;14.10;84.10
25871;DHT22;13689;48.590;7.752;2023-05-13T01:10:32;14.10;84.10
25871;DHT22;13689;48.590;7.752;2023-05-13T01:13:00;14.10;84.10
25871;DHT22;13689;48.590;7.752;2023-05-13T01:15:28;14.00;83.90
25871;DHT22;13689;48.590;7.752;2023-05-13T01:17:56;14.00;83.90
25871;DHT22;13689;48.590;7.752;2023-05-13T01:20:24;14.00;84.10
25871;DHT22;13689;48.590;7.752;2023-05-13T01:22:54;14.00;84.10
25871;DHT22;13689;48.590;7.752;2023-05-13T01:25:20;14.00;84.00
25871;DHT22;13689;48.590;7.752;2023-05-13T01:27:46;14.00;84.10
25871;DHT22;13689;48.590;7.752;2023-05-13T01:30:12;14.00;84.00
25871;DHT22;13689;48.590;7.752;2023-05-13T01:32:37;14.00;84.00
25871;DHT22;13689;48.590;7.752;2023-05-13T01:35:03;14.00;84.10
25871;DHT22;13689;48.590;7.752;2023-05-13T01:37:29;14.00;84.10
25871;DHT22;13689;48.590;7.752;2023-05-13T01:39:55;14.00;84.00
25871;DHT22;13689;48.590;7.752;2023-05-13T01:42:22;14.00;84.00
25871;DHT22;13689;48.590;7.752;2023-05-13T01:44:47;14.00;84.00
25871;DHT22;13689;48.590;7.752;2023-05-13T01:47:13;13.90;83.90
25871;DHT22;13689;48.590;7.752;2023-05-13T01:49:39;13.90;84.10
25871;DHT22;13689;48.590;7.752;2023-05-13T01:52:05;13.90;84.40
25871;DHT22;13689;48.590;7.752;2023-05-13T01:54:31;13.90;84.30
25871;DHT22;13689;48.590;7.752;2023-05-13T01:56:56;13.90;84.30
25871;DHT22;13689;48.590;7.752;2023-05-13T01:59:22;13.90;84.30
25871;DHT22;13689;48.590;7.752;2023-05-13T02:01:47;13.80;84.10
25871;DHT22;13689;48.590;7.752;2023-05-13T02:04:13;13.80;84.20
25871;DHT22;13689;48.590;7.752;2023-05-13T02:06:38;13.80;84.40
25871;DHT22;13689;48.590;7.752;2023-05-13T02:09:04;13.80;84.20
25871;DHT22;13689;48.590;7.752;2023-05-13T02:11:29;13.80;84.40
25871;DHT22;13689;48.590;7.752;2023-05-13T02:13:55;13.70;84.20
25871;DHT22;13689;48.590;7.752;2023-05-13T02:16:20;13.70;84.20
25871;DHT22;13689;48.590;7.752;2023-05-13T02:18:46;13.70;84.50
25871;DHT22;13689;48.590;7.752;2023-05-13T02:21:11;13.70;84.60
25871;DHT22;13689;48.590;7.752;2023-05-13T02:23:37;13.70;84.50
25871;DHT22;13689;48.590;7.752;2023-05-13T02:26:02;13.70;84.60
25871;DHT22;13689;48.590;7.752;2023-05-13T02:28:28;13.70;84.60
25871;DHT22;13689;48.590;7.752;2023-05-13T02:30:53;13.60;85.00
25871;DHT22;13689;48.590;7.752;2023-05-13T02:33:19;13.60;84.60
25871;DHT22;13689;48.590;7.752;2023-05-13T02:35:44;13.60;84.60
25871;DHT22;13689;48.590;7.752;2023-05-13T02:38:10;13.60;84.80
25871;DHT22;13689;48.590;7.752;2023-05-13T02:40:35;13.60;84.60
25871;DHT22;13689;48.590;7.752;2023-05-13T02:43:01;13.60;84.80
25871;DHT22;13689;48.590;7.752;2023-05-13T02:45:27;13.60;84.70
25871;DHT22;13689;48.590;7.752;2023-05-13T02:47:52;13.60;84.90
25871;DHT22;13689;48.590;7.752;2023-05-13T02:50:18;13.60;85.00
25871;DHT22;13689;48.590;7.752;2023-05-13T02:52:43;13.60;85.00
25871;DHT22;13689;48.590;7.752;2023-05-13T02:55:09;13.50;84.80
25871;DHT22;13689;48.590;7.752;2023-05-13T02:57:34;13.60;84.90
25871;DHT22;13689;48.590;7.752;2023-05-13T03:00:07;13.50;84.90
25871;DHT22;13689;48.590;7.752;2023-05-13T03:02:33;13.50;84.90
25871;DHT22;13689;48.590;7.752;2023-05-13T03:05:01;13.50;84.90
25871;DHT22;13689;48.590;7.752;2023-05-13T03:07:36;13.50;85.00
25871;DHT22;13689;48.590;7.752;2023-05-13T03:10:01;13.50;85.10
25871;DHT22;13689;48.590;7.752;2023-05-13T03:12:27;13.50;85.20
25871;DHT22;13689;48.590;7.752;2023-05-13T03:14:52;13.50;85.20
25871;DHT22;13689;48.590;7.752;2023-05-13T03:17:18;13.50;85.00
25871;DHT22;13689;48.590;7.752;2023-05-13T03:19:43;13.40;85.00
25871;DHT22;13689;48.590;7.752;2023-05-13T03:22:09;13.40;85.00
25871;DHT22;13689;48.590;7.752;2023-05-13T03:24:34;13.40;85.00
25871;DHT22;13689;48.590;7.752;2023-05-13T03:27:00;13.40;85.10
25871;DHT22;13689;48.590;7.752;2023-05-13T03:29:25;13.40;85.00
25871;DHT22;13689;48.590;7.752;2023-05-13T03:31:51;13.40;84.80
25871;DHT22;13689;48.590;7.752;2023-05-13T03:34:17;13.40;84.60
25871;DHT22;13689;48.590;7.752;2023-05-13T03:36:42;13.40;84.40
25871;DHT22;13689;48.590;7.752;2023-05-13T03:39:07;13.40;84.60
25871;DHT22;13689;48.590;7.752;2023-05-13T03:41:33;13.40;84.70
25871;DHT22;13689;48.590;7.752;2023-05-13T03:43:59;13.40;84.60
25871;DHT22;13689;48.590;7.752;2023-05-13T03:46:24;13.40;84.60
25871;DHT22;13689;48.590;7.752;2023-05-13T03:48:51;13.30;84.60
25871;DHT22;13689;48.590;7.752;2023-05-13T03:51:17;13.30;84.50
25871;DHT22;13689;48.590;7.752;2023-05-13T03:53:42;13.30;84.60
25871;DHT22;13689;48.590;7.752;2023-05-13T03:56:08;13.30;84.60
25871;DHT22;13689;48.590;7.752;2023-05-13T03:58:33;13.30;84.70
25871;DHT22;13689;48.590;7.752;2023-05-13T04:00:59;13.20;84.60
25871;DHT22;13689;48.590;7.752;2023-05-13T04:03:24;13.20;84.90
25871;DHT22;13689;48.590;7.752;2023-05-13T04:05:50;13.20;84.90
25871;DHT22;13689;48.590;7.752;2023-05-13T04:08:15;13.20;84.90
25871;DHT22;13689;48.590;7.752;2023-05-13T04:10:41;13.20;85.00
25871;DHT22;13689;48.590;7.752;2023-05-13T04:13:07;13.20;85.10
25871;DHT22;13689;48.590;7.752;2023-05-13T04:15:32;13.20;85.10
25871;DHT22;13689;48.590;7.752;2023-05-13T04:17:58;13.30;85.10
25871;DHT22;13689;48.590;7.752;2023-05-13T04:20:23;13.20;84.90
25871;DHT22;13689;48.590;7.752;2023-05-13T04:22:49;13.20;85.00
25871;DHT22;13689;48.590;7.752;2023-05-13T04:25:15;13.20;85.00
25871;DHT22;13689;48.590;7.752;2023-05-13T04:27:40;13.20;85.10
25871;DHT22;13689;48.590;7.752;2023-05-13T04:30:06;13.10;85.10
25871;DHT22;13689;48.590;7.752;2023-05-13T04:32:31;13.10;85.10
25871;DHT22;13689;48.590;7.752;2023-05-13T04:34:57;13.20;85.20
25871;DHT22;13689;48.590;7.752;2023-05-13T04:37:22;13.20;85.30
25871;DHT22;13689;48.590;7.752;2023-05-13T04:39:48;13.20;85.00
25871;DHT22;13689;48.590;7.752;2023-05-13T04:42:14;13.20;84.90
25871;DHT22;13689;48.590;7.752;2023-05-13T04:44:40;13.20;84.80
25871;DHT22;13689;48.590;7.752;2023-05-13T04:47:06;13.20;84.60
25871;DHT22;13689;48.590;7.752;2023-05-13T04:49:31;13.20;84.40
25871;DHT22;13689;48.590;7.752;2023-05-13T04:51:57;13.30;84.50
25871;DHT22;13689;48.590;7.752;2023-05-13T04:54:23;13.30;84.40
25871;DHT22;13689;48.590;7.752;2023-05-13T04:56:48;13.40;84.20
25871;DHT22;13689;48.590;7.752;2023-05-13T04:59:14;13.40;83.50
25871;DHT22;13689;48.590;7.752;2023-05-13T05:01:39;13.50;83.40
25871;DHT22;13689;48.590;7.752;2023-05-13T05:04:05;13.50;83.50
25871;DHT22;13689;48.590;7.752;2023-05-13T05:06:30;13.60;83.00
25871;DHT22;13689;48.590;7.752;2023-05-13T05:08:57;13.60;82.90
25871;DHT22;13689;48.590;7.752;2023-05-13T05:11:22;13.60;82.60
25871;DHT22;13689;48.590;7.752;2023-05-13T05:13:48;13.70;82.20
25871;DHT22;13689;48.590;7.752;2023-05-13T05:16:13;13.70;82.40
25871;DHT22;13689;48.590;7.752;2023-05-13T05:18:38;13.70;82.50
25871;DHT22;13689;48.590;7.752;2023-05-13T05:21:05;13.70;82.00
25871;DHT22;13689;48.590;7.752;2023-05-13T05:23:31;13.70;81.90
25871;DHT22;13689;48.590;7.752;2023-05-13T05:25:56;13.70;82.20
25871;DHT22;13689;48.590;7.752;2023-05-13T05:28:24;13.70;82.00
25871;DHT22;13689;48.590;7.752;2023-05-13T05:30:50;13.80;82.30
25871;DHT22;13689;48.590;7.752;2023-05-13T05:33:16;13.90;81.80
25871;DHT22;13689;48.590;7.752;2023-05-13T05:35:42;14.00;81.60
25871;DHT22;13689;48.590;7.752;2023-05-13T05:38:07;14.00;80.90
25871;DHT22;13689;48.590;7.752;2023-05-13T05:40:34;14.20;80.90
25871;DHT22;13689;48.590;7.752;2023-05-13T05:43:00;14.40;80.40
25871;DHT22;13689;48.590;7.752;2023-05-13T05:45:26;14.60;80.10
25871;DHT22;13689;48.590;7.752;2023-05-13T05:47:52;14.90;79.70
25871;DHT22;13689;48.590;7.752;2023-05-13T05:50:19;15.20;78.90
25871;DHT22;13689;48.590;7.752;2023-05-13T05:52:45;15.30;78.10
25871;DHT22;13689;48.590;7.752;2023-05-13T05:55:11;15.50;77.50
25871;DHT22;13689;48.590;7.752;2023-05-13T05:57:36;15.50;76.60
25871;DHT22;13689;48.590;7.752;2023-05-13T06:00:02;15.50;76.30
25871;DHT22;13689;48.590;7.752;2023-05-13T06:02:27;15.70;76.50
25871;DHT22;13689;48.590;7.752;2023-05-13T06:04:53;15.80;76.10
25871;DHT22;13689;48.590;7.752;2023-05-13T06:07:18;15.80;74.80
25871;DHT22;13689;48.590;7.752;2023-05-13T06:09:44;15.90;74.90
25871;DHT22;13689;48.590;7.752;2023-05-13T06:12:09;15.90;73.90
25871;DHT22;13689;48.590;7.752;2023-05-13T06:14:35;15.90;73.70
25871;DHT22;13689;48.590;7.752;2023-05-13T06:17:00;16.00;74.00
25871;DHT22;13689;48.590;7.752;2023-05-13T06:19:26;16.10;73.70
25871;DHT22;13689;48.590;7.752;2023-05-13T06:21:51;16.20;73.10
25871;DHT22;13689;48.590;7.752;2023-05-13T06:24:16;16.20;73.10
25871;DHT22;13689;48.590;7.752;2023-05-13T06:26:42;16.20;72.80
25871;DHT22;13689;48.590;7.752;2023-05-13T06:29:08;16.10;72.20
25871;DHT22;13689;48.590;7.752;2023-05-13T06:31:34;16.20;72.80
25871;DHT22;13689;48.590;7.752;2023-05-13T06:33:59;16.30;72.80
25871;DHT22;13689;48.590;7.752;2023-05-13T06:36:25;16.50;72.60
25871;DHT22;13689;48.590;7.752;2023-05-13T06:38:50;16.70;72.20
25871;DHT22;13689;48.590;7.752;2023-05-13T06:41:16;16.70;70.30
25871;DHT22;13689;48.590;7.752;2023-05-13T06:43:41;16.70;70.40
25871;DHT22;13689;48.590;7.752;2023-05-13T06:46:09;16.80;70.30
25871;DHT22;13689;48.590;7.752;2023-05-13T06:48:35;17.00;70.20
25871;DHT22;13689;48.590;7.752;2023-05-13T06:51:01;17.00;69.00
25871;DHT22;13689;48.590;7.752;2023-05-13T06:53:26;17.10;68.50
25871;DHT22;13689;48.590;7.752;2023-05-13T06:55:52;17.10;68.50
25871;DHT22;13689;48.590;7.752;2023-05-13T06:58:17;17.10;68.50
25871;DHT22;13689;48.590;7.752;2023-05-13T07:00:43;17.00;68.60
25871;DHT22;13689;48.590;7.752;2023-05-13T07:03:10;16.90;68.80
25871;DHT22;13689;48.590;7.752;2023-05-13T07:05:36;16.80;68.60
25871;DHT22;13689;48.590;7.752;2023-05-13T07:08:02;16.80;68.30
25871;DHT22;13689;48.590;7.752;2023-05-13T07:10:34;17.10;68.30
25871;DHT22;13689;48.590;7.752;2023-05-13T07:13:02;17.40;67.70
25871;DHT22;13689;48.590;7.752;2023-05-13T07:15:28;17.40;66.90
25871;DHT22;13689;48.590;7.752;2023-05-13T07:17:54;17.20;65.80
25871;DHT22;13689;48.590;7.752;2023-05-13T07:20:19;17.20;66.60
25871;DHT22;13689;48.590;7.752;2023-05-13T07:22:49;17.40;65.70
25871;DHT22;13689;48.590;7.752;2023-05-13T07:25:15;17.50;64.90
25871;DHT22;13689;48.590;7.752;2023-05-13T07:27:40;17.70;64.20
25871;DHT22;13689;48.590;7.752;2023-05-13T07:30:06;17.70;63.90
25871;DHT22;13689;48.590;7.752;2023-05-13T07:32:31;17.90;63.80
25871;DHT22;13689;48.590;7.752;2023-05-13T07:34:57;18.10;63.00
25871;DHT22;13689;48.590;7.752;2023-05-13T07:37:22;18.10;61.10
25871;DHT22;13689;48.590;7.752;2023-05-13T07:39:48;18.10;61.50
25871;DHT22;13689;48.590;7.752;2023-05-13T07:42:14;18.20;60.90
25871;DHT22;13689;48.590;7.752;2023-05-13T07:44:39;18.40;61.20
25871;DHT22;13689;48.590;7.752;2023-05-13T07:47:05;18.40;61.00
25871;DHT22;13689;48.590;7.752;2023-05-13T07:49:31;18.20;60.60
25871;DHT22;13689;48.590;7.752;2023-05-13T07:51:57;18.20;60.40
25871;DHT22;13689;48.590;7.752;2023-05-13T07:54:22;18.40;60.40
25871;DHT22;13689;48.590;7.752;2023-05-13T07:56:48;18.70;59.80
25871;DHT22;13689;48.590;7.752;2023-05-13T07:59:13;18.90;58.80
25871;DHT22;13689;48.590;7.752;2023-05-13T08:01:39;19.00;57.50
25871;DHT22;13689;48.590;7.752;2023-05-13T08:04:04;18.80;57.10
25871;DHT22;13689;48.590;7.752;2023-05-13T08:06:30;18.60;57.80
25871;DHT22;13689;48.590;7.752;2023-05-13T08:08:56;18.70;58.20
25871;DHT22;13689;48.590;7.752;2023-05-13T08:11:21;18.90;57.90
25871;DHT22;13689;48.590;7.752;2023-05-13T08:13:47;19.10;56.80
25871;DHT22;13689;48.590;7.752;2023-05-13T08:16:12;19.40;56.70
25871;DHT22;13689;48.590;7.752;2023-05-13T08:18:38;19.50;55.70
25871;DHT22;13689;48.590;7.752;2023-05-13T08:21:03;19.60;56.10
25871;DHT22;13689;48.590;7.752;2023-05-13T08:23:29;19.50;55.80
25871;DHT22;13689;48.590;7.752;2023-05-13T08:25:54;19.20;55.60
25871;DHT22;13689;48.590;7.752;2023-05-13T08:28:20;18.90;56.30
25871;DHT22;13689;48.590;7.752;2023-05-13T08:30:45;18.90;56.10
25871;DHT22;13689;48.590;7.752;2023-05-13T08:33:11;19.30;56.30
25871;DHT22;13689;48.590;7.752;2023-05-13T08:35:37;19.30;55.40
25871;DHT22;13689;48.590;7.752;2023-05-13T08:38:02;19.40;55.60
25871;DHT22;13689;48.590;7.752;2023-05-13T08:40:32;19.60;55.20
25871;DHT22;13689;48.590;7.752;2023-05-13T08:43:00;19.50;55.20
25871;DHT22;13689;48.590;7.752;2023-05-13T08:45:28;19.60;55.10
25871;DHT22;13689;48.590;7.752;2023-05-13T08:47:58;20.40;54.90
25871;DHT22;13689;48.590;7.752;2023-05-13T08:50:24;21.80;53.20
25871;DHT22;13689;48.590;7.752;2023-05-13T08:52:53;23.20;50.20
25871;DHT22;13689;48.590;7.752;2023-05-13T08:55:19;24.20;47.90
25871;DHT22;13689;48.590;7.752;2023-05-13T08:57:44;25.20;45.80
25871;DHT22;13689;48.590;7.752;2023-05-13T09:00:10;26.10;44.50
25871;DHT22;13689;48.590;7.752;2023-05-13T09:02:36;26.50;43.00
25871;DHT22;13689;48.590;7.752;2023-05-13T09:05:03;26.60;40.60
25871;DHT22;13689;48.590;7.752;2023-05-13T09:07:33;26.10;40.10
25871;DHT22;13689;48.590;7.752;2023-05-13T09:09:59;26.20;40.40
25871;DHT22;13689;48.590;7.752;2023-05-13T09:15:12;26.40;39.60
25871;DHT22;13689;48.590;7.752;2023-05-13T09:17:41;26.00;39.20
25871;DHT22;13689;48.590;7.752;2023-05-13T09:20:10;26.20;39.50
25871;DHT22;13689;48.590;7.752;2023-05-13T09:22:46;26.00;39.30
25871;DHT22;13689;48.590;7.752;2023-05-13T09:25:12;25.30;39.20
25871;DHT22;13689;48.590;7.752;2023-05-13T09:27:40;24.60;39.90
25871;DHT22;13689;48.590;7.752;2023-05-13T09:30:06;24.30;40.70
25871;DHT22;13689;48.590;7.752;2023-05-13T09:32:31;23.80;41.30
25871;DHT22;13689;48.590;7.752;2023-05-13T09:37:52;22.80;43.10
25871;DHT22;13689;48.590;7.752;2023-05-13T09:40:18;22.40;44.10
25871;DHT22;13689;48.590;7.752;2023-05-13T09:42:44;22.40;44.40
25871;DHT22;13689;48.590;7.752;2023-05-13T09:45:13;22.30;44.60
25871;DHT22;13689;48.590;7.752;2023-05-13T09:47:39;22.20;44.90
25871;DHT22;13689;48.590;7.752;2023-05-13T09:50:06;21.90;45.40
25871;DHT22;13689;48.590;7.752;2023-05-13T09:52:33;21.60;46.20
25871;DHT22;13689;48.590;7.752;2023-05-13T09:54:59;21.20;47.10
25871;DHT22;13689;48.590;7.752;2023-05-13T09:57:27;21.00;47.90
25871;DHT22;13689;48.590;7.752;2023-05-13T10:00:02;21.00;48.10
25871;DHT22;13689;48.590;7.752;2023-05-13T10:02:31;20.80;48.40
25871;DHT22;13689;48.590;7.752;2023-05-13T10:04:57;20.70;48.80
25871;DHT22;13689;48.590;7.752;2023-05-13T10:07:23;20.60;49.40
25871;DHT22;13689;48.590;7.752;2023-05-13T10:09:50;20.60;49.50
25871;DHT22;13689;48.590;7.752;2023-05-13T10:12:17;20.50;49.50
25871;DHT22;13689;48.590;7.752;2023-05-13T10:14:44;20.40;49.50
25871;DHT22;13689;48.590;7.752;2023-05-13T10:17:11;20.40;49.60
25871;DHT22;13689;48.590;7.752;2023-05-13T10:19:36;20.30;50.00
25871;DHT22;13689;48.590;7.752;2023-05-13T10:22:02;20.40;50.20
25871;DHT22;13689;48.590;7.752;2023-05-13T10:24:27;20.40;50.10
25871;DHT22;13689;48.590;7.752;2023-05-13T10:26:53;20.30;50.50
25871;DHT22;13689;48.590;7.752;2023-05-13T10:29:20;20.30;50.60
25871;DHT22;13689;48.590;7.752;2023-05-13T10:31:46;20.30;50.80
25871;DHT22;13689;48.590;7.752;2023-05-13T10:34:13;20.40;50.90
25871;DHT22;13689;48.590;7.752;2023-05-13T10:36:48;20.70;50.60
25871;DHT22;13689;48.590;7.752;2023-05-13T10:39:33;20.80;50.40
25871;DHT22;13689;48.590;7.752;2023-05-13T10:44:52;20.80;50.10
25871;DHT22;13689;48.590;7.752;2023-05-13T10:47:21;20.90;50.20
25871;DHT22;13689;48.590;7.752;2023-05-13T10:49:50;21.20;50.10
25871;DHT22;13689;48.590;7.752;2023-05-13T10:52:17;21.20;49.70
25871;DHT22;13689;48.590;7.752;2023-05-13T10:54:42;21.10;49.60
25871;DHT22;13689;48.590;7.752;2023-05-13T10:57:08;21.10;49.70
25871;DHT22;13689;48.590;7.752;2023-05-13T10:59:34;21.00;49.80
25871;DHT22;13689;48.590;7.752;2023-05-13T11:02:35;21.00;49.70
25871;DHT22;13689;48.590;7.752;2023-05-13T11:04:57;21.00;49.80
25871;DHT22;13689;48.590;7.752;2023-05-13T11:07:23;21.00;50.00
25871;DHT22;13689;48.590;7.752;2023-05-13T11:09:48;20.90;50.20
25871;DHT22;13689;48.590;7.752;2023-05-13T11:12:17;20.80;50.40
25871;DHT22;13689;48.590;7.752;2023-05-13T11:14:42;20.90;50.60
25871;DHT22;13689;48.590;7.752;2023-05-13T11:17:09;21.00;50.60
25871;DHT22;13689;48.590;7.752;2023-05-13T11:19:36;21.10;50.40
25871;DHT22;13689;48.590;7.752;2023-05-13T11:22:09;21.20;50.10
25871;DHT22;13689;48.590;7.752;2023-05-13T11:24:35;21.20;50.00
25871;DHT22;13689;48.590;7.752;2023-05-13T11:27:16;21.30;49.70
25871;DHT22;13689;48.590;7.752;2023-05-13T11:29:49;21.20;49.60
25871;DHT22;13689;48.590;7.752;2023-05-13T11:32:46;21.10;49.50
25871;DHT22;13689;48.590;7.752;2023-05-13T11:35:03;20.90;50.00
25871;DHT22;13689;48.590;7.752;2023-05-13T11:37:28;20.80;50.20
25871;DHT22;13689;48.590;7.752;2023-05-13T11:39:56;20.90;50.20
25871;DHT22;13689;48.590;7.752;2023-05-13T11:42:22;20.80;50.00
25871;DHT22;13689;48.590;7.752;2023-05-13T11:44:47;20.80;50.50
25871;DHT22;13689;48.590;7.752;2023-05-13T11:47:13;20.80;50.60
25871;DHT22;13689;48.590;7.752;2023-05-13T11:52:14;20.60;50.60
25871;DHT22;13689;48.590;7.752;2023-05-13T11:59:40;20.80;50.70
25871;DHT22;13689;48.590;7.752;2023-05-13T12:02:06;20.70;50.60
25871;DHT22;13689;48.590;7.752;2023-05-13T12:04:31;20.60;50.90
25871;DHT22;13689;48.590;7.752;2023-05-13T12:06:57;20.60;51.20
25871;DHT22;13689;48.590;7.752;2023-05-13T12:09:23;20.50;51.30
25871;DHT22;13689;48.590;7.752;2023-05-13T12:11:49;20.30;51.70
25871;DHT22;13689;48.590;7.752;2023-05-13T12:14:15;20.30;51.60
25871;DHT22;13689;48.590;7.752;2023-05-13T12:16:42;20.10;51.60
25871;DHT22;13689;48.590;7.752;2023-05-13T12:19:08;20.00;52.20
25871;DHT22;13689;48.590;7.752;2023-05-13T12:21:33;20.20;52.10
25871;DHT22;13689;48.590;7.752;2023-05-13T12:23:59;20.20;51.90
25871;DHT22;13689;48.590;7.752;2023-05-13T12:26:25;20.30;51.70
25871;DHT22;13689;48.590;7.752;2023-05-13T12:28:59;20.40;51.90
25871;DHT22;13689;48.590;7.752;2023-05-13T12:31:25;20.40;51.40
25871;DHT22;13689;48.590;7.752;2023-05-13T12:33:50;20.30;51.50
25871;DHT22;13689;48.590;7.752;2023-05-13T12:36:17;20.20;51.30
25871;DHT22;13689;48.590;7.752;2023-05-13T12:38:57;20.10;51.30
25871;DHT22;13689;48.590;7.752;2023-05-13T12:41:23;20.00;51.70
25871;DHT22;13689;48.590;7.752;2023-05-13T12:43:51;19.90;51.60
25871;DHT22;13689;48.590;7.752;2023-05-13T12:46:19;19.70;51.20
25871;DHT22;13689;48.590;7.752;2023-05-13T12:48:44;19.60;51.40
25871;DHT22;13689;48.590;7.752;2023-05-13T12:51:10;19.60;50.80
25871;DHT22;13689;48.590;7.752;2023-05-13T12:53:36;19.60;50.00
25871;DHT22;13689;48.590;7.752;2023-05-13T12:56:01;19.60;50.00
25871;DHT22;13689;48.590;7.752;2023-05-13T12:58:27;19.60;50.10
25871;DHT22;13689;48.590;7.752;2023-05-13T13:00:52;19.60;50.30
25871;DHT22;13689;48.590;7.752;2023-05-13T13:03:18;19.60;50.30
25871;DHT22;13689;48.590;7.752;2023-05-13T13:05:43;19.60;50.60
25871;DHT22;13689;48.590;7.752;2023-05-13T13:08:09;19.50;50.90
25871;DHT22;13689;48.590;7.752;2023-05-13T13:10:34;19.60;51.20
25871;DHT22;13689;48.590;7.752;2023-05-13T13:13:00;19.60;50.90
25871;DHT22;13689;48.590;7.752;2023-05-13T13:15:25;19.70;51.00
25871;DHT22;13689;48.590;7.752;2023-05-13T13:17:51;19.70;50.80
25871;DHT22;13689;48.590;7.752;2023-05-13T13:20:16;19.70;50.40
25871;DHT22;13689;48.590;7.752;2023-05-13T13:22:42;19.60;50.80
25871;DHT22;13689;48.590;7.752;2023-05-13T13:25:07;19.60;51.00
25871;DHT22;13689;48.590;7.752;2023-05-13T13:27:33;19.60;51.30
25871;DHT22;13689;48.590;7.752;2023-05-13T13:29:59;19.60;51.40
25871;DHT22;13689;48.590;7.752;2023-05-13T13:32:24;19.60;51.40
25871;DHT22;13689;48.590;7.752;2023-05-13T13:34:50;19.60;51.30
25871;DHT22;13689;48.590;7.752;2023-05-13T13:37:15;19.60;51.30
25871;DHT22;13689;48.590;7.752;2023-05-13T13:39:41;19.60;51.20
25871;DHT22;13689;48.590;7.752;2023-05-13T13:42:06;19.60;51.00
25871;DHT22;13689;48.590;7.752;2023-05-13T13:44:32;19.60;51.00
25871;DHT22;13689;48.590;7.752;2023-05-13T13:46:58;19.60;50.90
25871;DHT22;13689;48.590;7.752;2023-05-13T13:49:23;19.70;50.60
25871;DHT22;13689;48.590;7.752;2023-05-13T13:51:50;19.60;50.10
25871;DHT22;13689;48.590;7.752;2023-05-13T13:54:15;19.60;50.40
25871;DHT22;13689;48.590;7.752;2023-05-13T13:56:41;19.70;50.50
25871;DHT22;13689;48.590;7.752;2023-05-13T13:59:07;19.70;50.30
25871;DHT22;13689;48.590;7.752;2023-05-13T14:01:32;19.70;50.30
25871;DHT22;13689;48.590;7.752;2023-05-13T14:04:16;19.80;50.40
25871;DHT22;13689;48.590;7.752;2023-05-13T14:06:48;19.80;50.70
25871;DHT22;13689;48.590;7.752;2023-05-13T14:09:13;19.80;50.80
25871;DHT22;13689;48.590;7.752;2023-05-13T14:11:39;19.80;50.70
25871;DHT22;13689;48.590;7.752;2023-05-13T14:14:05;19.70;50.90
25871;DHT22;13689;48.590;7.752;2023-05-13T14:16:31;19.70;51.10
25871;DHT22;13689;48.590;7.752;2023-05-13T14:18:57;19.70;50.90
25871;DHT22;13689;48.590;7.752;2023-05-13T14:21:22;19.60;50.50
25871;DHT22;13689;48.590;7.752;2023-05-13T14:23:48;19.60;50.40
25871;DHT22;13689;48.590;7.752;2023-05-13T14:26:13;19.60;50.60
25871;DHT22;13689;48.590;7.752;2023-05-13T14:28:42;19.60;50.80
25871;DHT22;13689;48.590;7.752;2023-05-13T14:31:07;19.60;50.90
25871;DHT22;13689;48.590;7.752;2023-05-13T14:33:33;19.70;51.00
25871;DHT22;13689;48.590;7.752;2023-05-13T14:35:58;19.70;51.10
25871;DHT22;13689;48.590;7.752;2023-05-13T14:38:24;19.70;51.20
25871;DHT22;13689;48.590;7.752;2023-05-13T14:40:51;19.60;51.40
25871;DHT22;13689;48.590;7.752;2023-05-13T14:43:16;19.60;51.60
25871;DHT22;13689;48.590;7.752;2023-05-13T14:45:42;19.60;51.60
25871;DHT22;13689;48.590;7.752;2023-05-13T14:48:07;19.60;51.80
25871;DHT22;13689;48.590;7.752;2023-05-13T14:50:34;19.60;51.90
25871;DHT22;13689;48.590;7.752;2023-05-13T14:52:59;19.50;51.70
25871;DHT22;13689;48.590;7.752;2023-05-13T14:55:25;19.50;51.80
25871;DHT22;13689;48.590;7.752;2023-05-13T14:57:50;19.50;51.70
25871;DHT22;13689;48.590;7.752;2023-05-13T15:00:16;19.60;51.80
25871;DHT22;13689;48.590;7.752;2023-05-13T15:02:41;19.60;51.90
25871;DHT22;13689;48.590;7.752;2023-05-13T15:05:07;19.70;51.80
25871;DHT22;13689;48.590;7.752;2023-05-13T15:07:33;19.70;51.60
25871;DHT22;13689;48.590;7.752;2023-05-13T15:09:58;19.70;51.60
25871;DHT22;13689;48.590;7.752;2023-05-13T15:12:23;19.70;51.40
25871;DHT22;13689;48.590;7.752;2023-05-13T15:14:53;19.70;51.40
25871;DHT22;13689;48.590;7.752;2023-05-13T15:17:19;19.80;51.30
25871;DHT22;13689;48.590;7.752;2023-05-13T15:19:44;19.80;51.00
25871;DHT22;13689;48.590;7.752;2023-05-13T15:22:10;19.80;50.80
25871;DHT22;13689;48.590;7.752;2023-05-13T15:24:35;19.90;50.90
25871;DHT22;13689;48.590;7.752;2023-05-13T15:27:01;19.90;50.90
25871;DHT22;13689;48.590;7.752;2023-05-13T15:29:28;19.80;50.80
25871;DHT22;13689;48.590;7.752;2023-05-13T15:31:53;19.80;50.80
25871;DHT22;13689;48.590;7.752;2023-05-13T15:34:20;19.70;51.00
25871;DHT22;13689;48.590;7.752;2023-05-13T15:36:45;19.60;51.30
25871;DHT22;13689;48.590;7.752;2023-05-13T15:39:11;19.50;51.50
25871;DHT22;13689;48.590;7.752;2023-05-13T15:41:36;19.50;51.60
25871;DHT22;13689;48.590;7.752;2023-05-13T15:44:02;19.50;51.70